createdAt,value
2018-06-15T00:00:02.565Z,16.07
2018-06-15T00:02:32.549Z,17.10
2018-06-15T00:05:01.312Z,16.90
2018-06-15T00:07:30.298Z,16.43
2018-06-15T00:09:59.824Z,16.93
2018-06-15T00:12:28.634Z,16.87
2018-06-15T00:14:57.312Z,16.90
2018-06-15T00:17:26.180Z,16.40
2018-06-15T00:19:55.201Z,16.93
2018-06-15T00:22:23.854Z,16.43
2018-06-15T00:24:52.661Z,17.33
2018-06-15T00:27:21.340Z,17.33
2018-06-15T00:29:50.321Z,17.07
2018-06-15T00:32:19.235Z,16.67
2018-06-15T00:34:47.917Z,17.13
2018-06-15T00:37:16.694Z,17.70
2018-06-15T00:39:45.442Z,16.80
2018-06-15T00:42:14.228Z,17.50
2018-06-15T00:44:43.206Z,16.43
2018-06-15T00:47:11.895Z,17.17
2018-06-15T00:49:40.749Z,17.20
2018-06-15T00:52:09.720Z,16.60
2018-06-15T00:54:38.719Z,16.80
2018-06-15T00:57:18.336Z,17.03
2018-06-15T00:59:47.272Z,17.10
2018-06-15T01:02:16.290Z,16.87
2018-06-15T01:04:45.124Z,17.83
2018-06-15T01:07:13.936Z,16.70
2018-06-15T01:09:42.719Z,17.53
2018-06-15T01:12:11.650Z,16.13
2018-06-15T01:14:40.606Z,16.97
2018-06-15T01:17:09.506Z,16.83
2018-06-15T01:19:38.160Z,16.57
2018-06-15T01:22:07.280Z,16.90
2018-06-15T01:24:36.216Z,15.70
2018-06-15T01:27:05.370Z,16.93
2018-06-15T01:29:34.271Z,16.97
2018-06-15T01:32:03.156Z,16.50
2018-06-15T01:34:32.040Z,16.03
2018-06-15T01:37:00.673Z,16.57
2018-06-15T01:39:28.955Z,16.80
2018-06-15T01:41:57.721Z,16.20
2018-06-15T01:44:26.545Z,15.47
2018-06-15T01:46:55.297Z,15.27
2018-06-15T01:49:24.236Z,16.23
2018-06-15T01:51:53.152Z,16.50
2018-06-15T01:54:21.831Z,16.70
2018-06-15T01:56:50.663Z,16.50
2018-06-15T01:59:19.392Z,15.97
2018-06-15T02:01:48.210Z,17.17
2018-06-15T02:07:08.160Z,16.10
2018-06-15T02:09:36.894Z,15.70
2018-06-15T02:12:05.818Z,16.27
2018-06-15T02:14:34.678Z,16.20
2018-06-15T02:17:03.606Z,14.43
2018-06-15T02:19:32.758Z,18.07
2018-06-15T02:22:02.268Z,15.57
2018-06-15T02:24:31.164Z,15.93
2018-06-15T02:27:00.091Z,16.43
2018-06-15T02:29:28.816Z,15.90
2018-06-15T02:31:57.605Z,15.77
2018-06-15T02:34:26.395Z,15.83
2018-06-15T02:36:55.047Z,15.47
2018-06-15T02:39:23.899Z,15.63
2018-06-15T02:41:52.724Z,14.73
2018-06-15T02:44:21.373Z,14.90
2018-06-15T02:46:50.350Z,15.37
2018-06-15T02:49:19.103Z,15.40
2018-06-15T02:51:48.351Z,14.60
2018-06-15T02:54:17.340Z,14.97
2018-06-15T02:56:46.338Z,15.87
2018-06-15T02:59:15.127Z,15.97
2018-06-15T03:01:43.927Z,15.07
2018-06-15T03:04:12.640Z,15.63
2018-06-15T03:06:41.509Z,17.77
2018-06-15T03:09:10.293Z,16.07
2018-06-15T03:11:39.081Z,16.37
2018-06-15T03:14:08.077Z,15.30
2018-06-15T03:16:37.182Z,16.13
2018-06-15T03:19:06.107Z,15.73
2018-06-15T03:21:34.935Z,15.73
2018-06-15T03:24:04.039Z,16.00
2018-06-15T03:26:33.887Z,15.83
2018-06-15T03:29:02.651Z,16.03
2018-06-15T03:31:31.467Z,16.43
2018-06-15T03:34:00.298Z,15.83
2018-06-15T03:36:29.016Z,14.70
2018-06-15T03:38:57.804Z,15.87
2018-06-15T03:41:26.751Z,16.17
2018-06-15T03:43:55.446Z,17.33
2018-06-15T03:46:24.117Z,18.60
2018-06-15T03:48:52.820Z,15.27
2018-06-15T03:51:21.436Z,14.80
2018-06-15T03:53:50.200Z,33.67
2018-06-15T03:56:18.994Z,14.87
2018-06-15T03:58:47.735Z,15.90
2018-06-15T04:01:16.084Z,15.07
2018-06-15T04:03:44.816Z,15.80
2018-06-15T04:06:13.598Z,15.97
2018-06-15T04:08:42.209Z,14.97
2018-06-15T04:11:11.127Z,15.53
2018-06-15T04:13:39.982Z,15.23
2018-06-15T04:16:08.876Z,14.87
2018-06-15T04:18:37.661Z,14.83
2018-06-15T04:21:06.486Z,15.03
2018-06-15T04:23:35.212Z,14.37
2018-06-15T04:26:04.014Z,15.30
2018-06-15T04:28:32.752Z,14.93
2018-06-15T04:31:01.414Z,14.43
2018-06-15T04:33:30.156Z,15.20
2018-06-15T04:35:58.858Z,14.27
2018-06-15T04:38:27.601Z,15.30
2018-06-15T04:40:56.421Z,15.90
2018-06-15T04:43:25.155Z,15.13
2018-06-15T04:45:53.803Z,14.23
2018-06-15T04:48:22.795Z,13.90
2018-06-15T04:50:51.439Z,14.43
2018-06-15T04:53:20.176Z,14.57
2018-06-15T04:55:48.843Z,15.23
2018-06-15T04:58:17.475Z,14.93
2018-06-15T05:00:46.195Z,15.47
2018-06-15T05:03:15.551Z,14.77
2018-06-15T05:05:45.190Z,15.70
2018-06-15T05:08:14.090Z,15.30
2018-06-15T05:10:42.832Z,14.67
2018-06-15T05:13:11.598Z,14.73
2018-06-15T05:15:41.782Z,13.37
2018-06-15T05:18:10.784Z,13.87
2018-06-15T05:20:39.875Z,14.50
2018-06-15T05:23:08.972Z,15.67
2018-06-15T05:25:37.811Z,13.93
2018-06-15T05:28:06.243Z,14.43
2018-06-15T05:30:34.948Z,14.70
2018-06-15T05:33:03.824Z,14.57
2018-06-15T05:35:32.549Z,14.53
2018-06-15T05:38:01.331Z,13.73
2018-06-15T05:40:30.186Z,14.03
2018-06-15T05:42:58.974Z,13.40
2018-06-15T05:45:27.865Z,13.27
2018-06-15T05:47:56.655Z,13.93
2018-06-15T05:50:25.340Z,14.33
2018-06-15T05:52:54.080Z,14.50
2018-06-15T05:55:22.856Z,14.13
2018-06-15T05:57:51.807Z,13.53
2018-06-15T06:00:20.805Z,17.23
2018-06-15T06:02:49.693Z,14.67
2018-06-15T06:05:18.662Z,14.13
2018-06-15T06:07:47.317Z,14.60
2018-06-15T06:10:15.967Z,15.13
2018-06-15T06:12:44.608Z,12.97
2018-06-15T06:15:13.432Z,12.40
2018-06-15T06:17:42.630Z,12.63
2018-06-15T06:20:11.680Z,14.23
2018-06-15T06:22:40.421Z,14.97
2018-06-15T06:25:09.148Z,12.80
2018-06-15T06:27:37.933Z,12.60
2018-06-15T06:30:06.631Z,11.57
2018-06-15T06:32:35.436Z,12.93
2018-06-15T06:35:04.260Z,11.47
2018-06-15T06:37:33.808Z,12.33
2018-06-15T06:40:02.458Z,12.13
2018-06-15T06:42:31.239Z,12.13
2018-06-15T06:45:00.000Z,12.57
2018-06-15T06:47:28.691Z,12.50
2018-06-15T06:49:57.496Z,11.07
2018-06-15T06:52:26.228Z,11.93
2018-06-15T06:54:55.117Z,12.77
2018-06-15T06:57:23.839Z,11.03
2018-06-15T06:59:52.684Z,10.47
2018-06-15T07:02:21.752Z,10.63
2018-06-15T07:04:50.538Z,10.13
2018-06-15T07:07:19.329Z,11.40
2018-06-15T07:09:48.528Z,10.63
2018-06-15T07:12:17.268Z,10.80
2018-06-15T07:14:45.944Z,13.63
2018-06-15T07:17:15.030Z,11.00
2018-06-15T07:19:43.812Z,11.47
2018-06-15T07:22:12.705Z,10.93
2018-06-15T07:24:41.577Z,11.80
2018-06-15T07:27:10.608Z,12.00
2018-06-15T07:29:39.026Z,9.77
2018-06-15T07:32:08.172Z,11.03
2018-06-15T07:34:36.954Z,10.50
2018-06-15T07:37:05.984Z,10.67
2018-06-15T07:39:35.323Z,10.70
2018-06-15T07:42:04.523Z,10.60
2018-06-15T07:44:33.924Z,11.10
2018-06-15T07:47:03.123Z,12.60
2018-06-15T07:49:32.015Z,13.20
2018-06-15T07:52:00.912Z,13.30
2018-06-15T07:54:29.568Z,12.77
2018-06-15T07:56:58.704Z,9.77
2018-06-15T07:59:27.618Z,10.10
2018-06-15T08:01:56.576Z,10.87
2018-06-15T08:04:25.942Z,10.83
2018-06-15T08:06:54.662Z,9.77
2018-06-15T08:09:23.766Z,11.00
2018-06-15T08:11:52.788Z,10.70
2018-06-15T08:14:21.745Z,10.63
2018-06-15T08:16:50.439Z,12.83
2018-06-15T08:19:19.257Z,9.03
2018-06-15T08:21:48.053Z,10.83
2018-06-15T08:24:16.900Z,10.37
2018-06-15T08:26:45.689Z,10.50
2018-06-15T08:29:14.471Z,10.33
2018-06-15T08:31:43.241Z,10.90
2018-06-15T08:34:12.207Z,11.97
2018-06-15T08:36:40.947Z,12.53
2018-06-15T08:39:11.474Z,10.27
2018-06-15T08:41:40.496Z,10.87
2018-06-15T08:44:09.356Z,9.50
2018-06-15T08:46:38.450Z,9.67
2018-06-15T08:49:07.355Z,10.60
2018-06-15T08:51:36.032Z,10.33
2018-06-15T08:54:04.854Z,7.70
2018-06-15T08:56:33.641Z,8.63
2018-06-15T08:59:02.373Z,9.00
2018-06-15T09:01:31.108Z,11.57
2018-06-15T09:03:59.854Z,8.33
2018-06-15T09:06:28.555Z,9.80
2018-06-15T09:08:57.190Z,12.57
2018-06-15T09:11:25.847Z,8.60
2018-06-15T09:13:54.637Z,10.23
2018-06-15T09:16:23.445Z,7.63
2018-06-15T09:18:52.230Z,9.63
2018-06-15T09:21:20.997Z,7.83
2018-06-15T09:23:49.778Z,8.57
2018-06-15T09:26:18.521Z,7.80
2018-06-15T09:28:47.328Z,10.37
2018-06-15T09:31:15.959Z,6.67
2018-06-15T09:33:44.643Z,6.97
2018-06-15T09:36:13.331Z,6.67
2018-06-15T09:38:42.309Z,6.80
2018-06-15T09:41:11.082Z,6.93
2018-06-15T09:43:40.148Z,6.87
2018-06-15T09:46:08.749Z,6.50
2018-06-15T09:48:41.383Z,7.53
2018-06-15T09:51:10.600Z,5.97
2018-06-15T09:53:39.543Z,7.20
2018-06-15T09:56:08.332Z,7.03
2018-06-15T09:58:37.444Z,7.00
2018-06-15T10:01:11.372Z,6.30
2018-06-15T10:03:40.677Z,7.53
2018-06-15T10:06:09.350Z,6.47
2018-06-15T10:08:38.068Z,8.40
2018-06-15T10:11:06.799Z,6.00
2018-06-15T10:13:35.616Z,6.33
2018-06-15T10:16:04.497Z,8.33
2018-06-15T10:18:33.268Z,7.33
2018-06-15T10:21:02.188Z,8.43
2018-06-15T10:23:30.960Z,5.87
2018-06-15T10:25:59.660Z,6.23
2018-06-15T10:28:28.653Z,7.87
2018-06-15T10:30:57.507Z,9.50
2018-06-15T10:33:26.512Z,6.17
2018-06-15T10:35:55.457Z,6.63
2018-06-15T10:38:24.151Z,7.90
2018-06-15T10:40:52.981Z,6.73
2018-06-15T10:43:21.700Z,4.30
2018-06-15T10:45:50.455Z,5.17
2018-06-15T10:48:19.175Z,4.47
2018-06-15T10:50:47.930Z,5.50
2018-06-15T10:53:16.716Z,6.27
2018-06-15T10:55:45.473Z,6.43
2018-06-15T10:58:14.434Z,6.57
2018-06-15T11:00:43.044Z,4.83
2018-06-15T11:03:11.669Z,4.73
2018-06-15T11:05:40.296Z,4.67
2018-06-15T11:08:09.048Z,6.13
2018-06-15T11:10:37.758Z,6.23
2018-06-15T11:13:06.550Z,5.80
2018-06-15T11:15:35.411Z,5.30
2018-06-15T11:18:04.203Z,5.03
2018-06-15T11:20:32.893Z,4.20
2018-06-15T11:23:01.585Z,4.23
2018-06-15T11:25:30.257Z,4.30
2018-06-15T11:27:59.035Z,4.47
2018-06-15T11:30:27.688Z,4.43
2018-06-15T11:32:56.482Z,5.20
2018-06-15T11:35:25.113Z,6.50
2018-06-15T11:37:53.956Z,4.00
2018-06-15T11:40:22.719Z,3.67
2018-06-15T11:42:51.528Z,5.20
2018-06-15T11:45:20.316Z,6.60
2018-06-15T11:47:49.080Z,6.13
2018-06-15T11:50:17.734Z,5.03
2018-06-15T11:52:46.418Z,4.23
2018-06-15T11:55:15.191Z,4.83
2018-06-15T11:57:43.843Z,5.00
2018-06-15T12:00:12.746Z,3.90
2018-06-15T12:02:41.477Z,4.33
2018-06-15T12:05:10.155Z,4.10
2018-06-15T12:07:38.979Z,5.33
2018-06-15T12:10:07.827Z,4.97
2018-06-15T12:12:36.628Z,5.57
2018-06-15T12:15:05.396Z,7.63
2018-06-15T12:17:34.057Z,5.43
2018-06-15T12:20:02.737Z,7.70
2018-06-15T12:22:31.501Z,5.23
2018-06-15T12:25:00.223Z,5.17
2018-06-15T12:27:28.984Z,6.10
2018-06-15T12:29:57.720Z,5.93
2018-06-15T12:32:26.443Z,6.87
2018-06-15T12:34:55.108Z,4.33
2018-06-15T12:37:23.908Z,4.33
2018-06-15T12:39:52.650Z,3.93
2018-06-15T12:42:21.483Z,6.27
2018-06-15T12:44:50.443Z,5.30
2018-06-15T12:47:19.220Z,5.07
2018-06-15T12:49:47.908Z,5.03
2018-06-15T12:52:16.631Z,5.33
2018-06-15T12:54:45.414Z,9.90
2018-06-15T12:57:14.173Z,7.20
2018-06-15T12:59:42.853Z,5.03
2018-06-15T13:02:11.551Z,4.23
2018-06-15T13:04:40.234Z,5.93
2018-06-15T13:07:09.010Z,4.80
2018-06-15T13:09:37.844Z,4.33
2018-06-15T13:12:06.575Z,4.70
2018-06-15T13:14:35.296Z,4.40
2018-06-15T13:17:03.961Z,5.73
2018-06-15T13:19:32.775Z,4.50
2018-06-15T13:22:01.508Z,4.47
2018-06-15T13:24:34.916Z,4.50
2018-06-15T13:27:03.904Z,7.33
2018-06-15T13:29:32.865Z,4.63
2018-06-15T13:32:01.553Z,5.47
2018-06-15T13:34:30.319Z,4.87
2018-06-15T13:36:59.150Z,4.53
2018-06-15T13:39:27.793Z,8.70
2018-06-15T13:41:56.555Z,6.47
2018-06-15T13:44:25.489Z,6.07
2018-06-15T13:46:54.159Z,4.80
2018-06-15T13:49:22.877Z,7.30
2018-06-15T13:51:51.702Z,6.97
2018-06-15T13:54:20.325Z,6.47
2018-06-15T13:56:49.145Z,5.60
2018-06-15T13:59:17.913Z,4.80
2018-06-15T14:01:46.758Z,8.00
2018-06-15T14:04:15.471Z,6.53
2018-06-15T14:06:44.152Z,5.37
2018-06-15T14:09:12.955Z,5.03
2018-06-15T14:11:41.718Z,6.37
2018-06-15T14:14:10.402Z,6.30
2018-06-15T14:16:39.023Z,5.63
2018-06-15T14:19:07.733Z,5.30
2018-06-15T14:21:36.425Z,7.43
2018-06-15T14:24:05.093Z,5.47
2018-06-15T14:26:33.851Z,14.33
2018-06-15T14:29:02.587Z,5.03
2018-06-15T14:31:31.406Z,5.07
2018-06-15T14:34:00.061Z,6.10
2018-06-15T14:36:28.788Z,5.97
2018-06-15T14:38:57.441Z,5.37
2018-06-15T14:41:26.157Z,5.27
2018-06-15T14:43:54.908Z,5.93
2018-06-15T14:46:23.589Z,5.10
2018-06-15T14:48:52.313Z,5.10
2018-06-15T14:51:21.091Z,4.97
2018-06-15T14:53:49.777Z,6.40
2018-06-15T14:56:18.412Z,6.20
2018-06-15T14:58:47.116Z,4.70
2018-06-15T15:01:15.813Z,7.77
2018-06-15T15:03:44.468Z,6.03
2018-06-15T15:06:13.313Z,4.70
2018-06-15T15:08:42.043Z,4.90
2018-06-15T15:11:10.857Z,4.60
2018-06-15T15:13:39.461Z,7.77
2018-06-15T15:16:08.179Z,6.40
2018-06-15T15:18:36.948Z,5.00
2018-06-15T15:21:05.855Z,4.57
2018-06-15T15:23:34.660Z,5.17
2018-06-15T15:26:03.372Z,7.87
2018-06-15T15:28:32.011Z,6.03
2018-06-15T15:31:00.779Z,6.67
2018-06-15T15:33:29.534Z,6.00
2018-06-15T15:35:58.210Z,7.27
2018-06-15T15:38:26.919Z,5.77
2018-06-15T15:40:55.710Z,8.30
2018-06-15T15:43:24.420Z,9.10
2018-06-15T15:45:54.080Z,4.60
2018-06-15T15:48:22.748Z,4.23
2018-06-15T15:50:51.488Z,5.17
2018-06-15T15:53:20.144Z,4.63
2018-06-15T15:55:49.028Z,5.37
2018-06-15T15:58:17.676Z,5.53
2018-06-15T16:00:46.383Z,6.90
2018-06-15T16:03:15.143Z,5.77
2018-06-15T16:05:43.890Z,4.80
2018-06-15T16:08:12.556Z,5.73
2018-06-15T16:10:41.101Z,4.93
2018-06-15T16:13:09.901Z,5.07
2018-06-15T16:15:38.855Z,6.00
2018-06-15T16:18:07.642Z,5.63
2018-06-15T16:20:36.619Z,6.27
2018-06-15T16:23:06.023Z,5.80
2018-06-15T16:25:34.773Z,6.83
2018-06-15T16:28:03.512Z,4.70
2018-06-15T16:30:32.406Z,7.50
2018-06-15T16:33:01.199Z,5.13
2018-06-15T16:35:29.955Z,5.53
2018-06-15T16:37:58.773Z,4.93
2018-06-15T16:40:27.662Z,4.40
2018-06-15T16:42:56.418Z,6.83
2018-06-15T16:45:25.342Z,5.37
2018-06-15T16:47:54.253Z,5.97
2018-06-15T16:50:22.940Z,6.63
2018-06-15T16:52:51.628Z,5.23
2018-06-15T16:55:20.332Z,6.23
2018-06-15T16:57:49.037Z,5.57
2018-06-15T17:00:18.001Z,6.93
2018-06-15T17:02:46.866Z,5.77
2018-06-15T17:05:15.758Z,6.70
2018-06-15T17:07:45.432Z,6.03
2018-06-15T17:10:14.283Z,5.57
2018-06-15T17:12:42.910Z,6.30
2018-06-15T17:15:11.733Z,4.83
2018-06-15T17:17:40.661Z,5.30
2018-06-15T17:20:09.499Z,7.33
2018-06-15T17:22:38.477Z,5.90
2018-06-15T17:25:07.253Z,5.60
2018-06-15T17:27:35.918Z,6.17
2018-06-15T17:30:04.733Z,6.60
2018-06-15T17:32:33.618Z,6.60
2018-06-15T17:35:02.442Z,4.57
2018-06-15T17:37:31.760Z,6.23
2018-06-15T17:40:00.440Z,5.93
2018-06-15T17:42:29.548Z,5.27
2018-06-15T17:44:58.665Z,5.00
2018-06-15T17:47:27.523Z,6.50
2018-06-15T17:49:56.277Z,6.53
2018-06-15T17:52:25.230Z,6.17
2018-06-15T17:54:54.244Z,6.00
2018-06-15T17:57:23.188Z,6.63
2018-06-15T17:59:52.000Z,5.37
2018-06-15T18:02:20.972Z,5.37
2018-06-15T18:04:49.947Z,8.17
2018-06-15T18:07:18.754Z,5.37
2018-06-15T18:09:47.415Z,5.80
2018-06-15T18:12:16.141Z,6.53
2018-06-15T18:14:45.122Z,5.90
2018-06-15T18:17:13.973Z,7.73
2018-06-15T18:19:42.801Z,7.97
2018-06-15T18:22:12.034Z,6.07
2018-06-15T18:24:40.725Z,4.93
2018-06-15T18:27:09.578Z,4.80
2018-06-15T18:29:38.426Z,4.67
2018-06-15T18:32:07.174Z,9.13
2018-06-15T18:34:36.047Z,5.40
2018-06-15T18:37:04.938Z,6.50
2018-06-15T18:39:33.645Z,6.00
2018-06-15T18:42:02.560Z,6.97
2018-06-15T18:44:31.509Z,8.90
2018-06-15T18:47:00.169Z,5.47
2018-06-15T18:49:28.985Z,7.03
2018-06-15T18:51:57.793Z,6.17
2018-06-15T18:54:26.679Z,5.30
2018-06-15T18:56:55.528Z,7.40
2018-06-15T18:59:24.241Z,7.20
2018-06-15T19:01:53.161Z,5.50
2018-06-15T19:04:22.022Z,5.80
2018-06-15T19:06:51.023Z,6.10
2018-06-15T19:09:19.861Z,5.23
2018-06-15T19:11:48.527Z,5.33
2018-06-15T19:14:17.164Z,7.30
2018-06-15T19:16:45.877Z,5.73
2018-06-15T19:19:14.491Z,6.67
2018-06-15T19:21:43.159Z,8.04
2018-06-15T19:24:12.230Z,7.10
2018-06-15T19:26:41.052Z,7.23
2018-06-15T19:29:10.002Z,8.40
2018-06-15T19:31:38.831Z,5.80
2018-06-15T19:34:08.005Z,6.03
2018-06-15T19:36:37.331Z,5.83
2018-06-15T19:39:07.438Z,5.57
2018-06-15T19:41:36.531Z,5.47
2018-06-15T19:44:05.395Z,5.93
2018-06-15T19:46:34.400Z,5.60
2018-06-15T19:49:03.297Z,6.13
2018-06-15T19:51:31.978Z,5.73
2018-06-15T19:54:00.826Z,6.53
2018-06-15T19:56:29.761Z,6.40
2018-06-15T19:58:58.584Z,6.37
2018-06-15T20:01:27.442Z,7.97
2018-06-15T20:03:56.435Z,6.73
2018-06-15T20:06:25.062Z,5.90
2018-06-15T20:08:53.780Z,6.57
2018-06-15T20:11:22.724Z,5.93
2018-06-15T20:13:51.346Z,7.20
2018-06-15T20:16:20.095Z,7.57
2018-06-15T20:18:49.065Z,6.57
2018-06-15T20:21:17.956Z,7.37
2018-06-15T20:23:46.616Z,6.67
2018-06-15T20:26:15.326Z,6.53
2018-06-15T20:28:43.964Z,7.40
2018-06-15T20:31:12.612Z,7.63
2018-06-15T20:33:41.417Z,9.63
2018-06-15T20:36:10.349Z,9.30
2018-06-15T20:38:39.169Z,7.27
2018-06-15T20:41:08.187Z,8.73
2018-06-15T20:43:37.151Z,7.37
2018-06-15T20:46:06.080Z,6.40
2018-06-15T20:48:34.821Z,7.27
2018-06-15T20:51:03.547Z,8.37
2018-06-15T20:53:32.314Z,7.67
2018-06-15T20:56:01.206Z,8.43
2018-06-15T20:58:30.021Z,7.10
2018-06-15T21:00:58.985Z,7.43
2018-06-15T21:03:27.777Z,8.50
2018-06-15T21:05:56.614Z,8.67
2018-06-15T21:08:25.291Z,8.30
2018-06-15T21:10:54.261Z,8.33
2018-06-15T21:13:23.165Z,8.03
2018-06-15T21:15:51.871Z,7.87
2018-06-15T21:18:20.840Z,8.90
2018-06-15T21:20:49.705Z,8.00
2018-06-15T21:23:18.596Z,8.13
2018-06-15T21:25:47.401Z,8.23
2018-06-15T21:28:16.483Z,10.63
2018-06-15T21:30:46.524Z,11.70
2018-06-15T21:33:15.189Z,9.00
2018-06-15T21:35:44.280Z,8.20
2018-06-15T21:38:13.079Z,12.90
2018-06-15T21:40:41.912Z,9.17
2018-06-15T21:43:11.083Z,8.00
2018-06-15T21:45:40.000Z,8.00
2018-06-15T21:48:08.769Z,8.67
2018-06-15T21:50:37.553Z,10.20
2018-06-15T21:53:06.314Z,8.40
2018-06-15T21:55:35.205Z,8.73
2018-06-15T21:58:03.941Z,8.30
2018-06-15T22:00:32.609Z,10.10
2018-06-15T22:03:01.391Z,7.30
2018-06-15T22:05:30.448Z,6.73
2018-06-15T22:07:59.252Z,7.87
2018-06-15T22:10:28.145Z,8.43
2018-06-15T22:12:57.168Z,7.57
2018-06-15T22:15:26.122Z,7.17
2018-06-15T22:17:54.759Z,9.53
2018-06-15T22:20:23.525Z,7.63
2018-06-15T22:22:52.395Z,8.63
2018-06-15T22:25:21.299Z,7.37
2018-06-15T22:27:50.304Z,9.47
2018-06-15T22:30:19.171Z,7.27
2018-06-15T22:32:48.196Z,8.27
2018-06-15T22:35:16.877Z,7.30
2018-06-15T22:37:45.930Z,7.87
2018-06-15T22:40:15.537Z,8.10
2018-06-15T22:42:44.450Z,8.37
2018-06-15T22:45:13.337Z,8.03
2018-06-15T22:47:42.237Z,8.40
2018-06-15T22:50:10.916Z,7.93
2018-06-15T22:52:39.536Z,8.50
2018-06-15T22:55:08.394Z,9.33
2018-06-15T22:57:37.011Z,8.23
2018-06-15T23:00:06.254Z,8.60
2018-06-15T23:02:34.890Z,9.37
2018-06-15T23:05:03.648Z,10.43
2018-06-15T23:07:32.529Z,8.90
2018-06-15T23:10:01.228Z,8.73
2018-06-15T23:12:29.989Z,8.30
2018-06-15T23:14:59.013Z,9.47
2018-06-15T23:17:27.796Z,8.87
2018-06-15T23:19:56.586Z,9.60
2018-06-15T23:22:25.585Z,8.17
2018-06-15T23:24:54.453Z,9.50
2018-06-15T23:27:23.068Z,10.03
2018-06-15T23:29:51.871Z,8.63
2018-06-15T23:32:20.661Z,9.30
2018-06-15T23:34:49.624Z,10.30
2018-06-15T23:37:18.445Z,9.80
2018-06-15T23:39:47.306Z,9.83
2018-06-15T23:42:16.197Z,9.17
2018-06-15T23:44:45.168Z,9.47
2018-06-15T23:47:14.217Z,8.93
2018-06-15T23:49:43.075Z,9.93
2018-06-15T23:52:11.863Z,9.77
2018-06-15T23:54:40.579Z,9.77
2018-06-15T23:57:09.284Z,9.10
2018-06-15T23:59:38.230Z,9.57
